ROMMA est une association bénévole à but non lucratif. Votre soutien est indispensable : ADHERER à ROMMA ou FAIRE un DON

Die - (26, Drôme)

Diois (400 m)   Longitude: 5° 21' 55"E   Latitude: 44° 45' 16"N Station partenaire n°159
 

Détail journalier du     <<     >>

Température Precipitation Humidité Pression Vent Dir Rafale Dir. rafale Ensol.
Heure (°C) (mm) (%) (hPa) (km/h) (km/h) (min)
01:00 4.1097102203NO0
02:00 3.8097102203NO0
03:00 2.4096102203OSO0
04:00 2.0096102203OSO0
05:00 0.9096102203SO0
06:00 0.909710221SO3SO0
07:00 0.309610221SE6ESE0
08:00 -0.3096102103SE0
09:00 0.3097102103SE30
10:00 1.509710221SE3SE50
11:00 3.409410211SE5SSO30
12:00 4.909010212NO6ONO0
13:00 6.408510201SSO3O0
14:00 6.908610191OSO3OSO0
15:00 7.708310181OSO5OSO0
16:00 7.7085101705OSO0
17:00 7.608610171NNE8ONO0
18:00 7.208710172NO6NO0
19:00 7.408410162SSE11SE0
20:00 7.708210162SSE8NNO0
21:00 9.607010163NNE18SO0
22:00 8.40.28210162E10SE0
23:00 6.70.29110161ESE3E0
minuit 8.807810152SE10SE0

Graphique du 27-01-2020

 

Serveur OMMA